ADDS METAR Data INFO
IDs: Format: Raw Decoded Include TAF

Data at: 1016 UTC 12 Dec 2017

KGCN 120954Z 07003KT 10SM CLR M09/M26 A3050 RMK AO2 SLP321 T10891261
KGCN 120854Z 06005KT 10SM CLR M09/M26 A3049 RMK AO2 SLP320 T10891261 53001
KGCN 120754Z 00000KT 10SM CLR M09/M27 A3049 RMK AO2 SLP318 T10941267
KGCN 120654Z 00000KT 10SM CLR M08/M27 A3049 RMK AO2 SLP316 T10781267 401281111
KGCN 120554Z 05004KT 10SM CLR M06/M27 A3049 RMK AO2 SLP315 T10611272 10089 21067 53008
KGCN 120454Z 06004KT 10SM CLR M04/M27 A3048 RMK AO2 SLP311 T10441272
KGCN 120354Z 06005KT 10SM CLR M04/M27 A3047 RMK AO2 SLP336 T10441272
KGCN 120254Z 04007KT 10SM CLR M06/M28 A3046 RMK AO2 SLP357 T10561278 51005
KGCN 120154Z 04003KT 10SM CLR M04/M27 A3046 RMK AO2 SLP343 T10391272
KGCN 120054Z 00000KT 10SM CLR 00/M29 A3045 RMK AO2 SLP309 T00001289
KGCN 112354Z 06006KT 10SM CLR 09/M32 A3044 RMK AO2 SLP314 T00891317 10128 20089 56001
KGCN 112254Z 05012KT 10SM CLR 12/M33 A3044 RMK AO2 SLP299 T01171333
KGCN 112154Z 07011KT 10SM CLR 12/M33 A3044 RMK AO2 SLP292 T01221333
KGCN 112054Z 07012G19KT 10SM CLR 12/M30 A3044 RMK AO2 SLP297 T01171300 56013
KGCN 111954Z 05011KT 10SM CLR 12/M28 A3045 RMK AO2 SLP274 T01221283
KGCN 111854Z 05010KT 10SM CLR 12/M28 A3047 RMK AO2 SLP295 T01171278
KGCN 111754Z 08008KT 10SM CLR 10/M27 A3049 RMK AO2 SLP324 T01001272 10100 21100 51002
KGCN 111654Z 04007KT 10SM CLR 09/M25 A3049 RMK AO2 SLP321 T00891250
KGCN 111554Z 02004KT 10SM CLR M02/M23 A3049 RMK AO2 SLP354 T10171233
KGCN 111454Z 05006KT 10SM CLR M09/M24 A3049 RMK AO2 SLP369 T10891244 52000
KGCN 111354Z AUTO 00000KT 10SM CLR M06/M25 A3048 RMK AO2 SLP356 T10611250
KGCN 111254Z AUTO 04008KT 10SM CLR 01/M23 A3048 RMK AO2 SLP325 T00061228
KGCN 111154Z AUTO 00000KT 10SM CLR M11/M23 A3048 RMK AO2 SLP337 T11061233 10044 21111 55000
KGCN 111054Z AUTO 04003KT 10SM CLR M07/M24 A3048 RMK AO2 SLP315 T10721239
KGCN 110954Z AUTO 05005KT 10SM CLR M06/M23 A3048 RMK AO2 SLP310 T10611228
KGCN 110854Z AUTO 04004KT 10SM CLR M06/M24 A3048 RMK AO2 SLP307 T10611244 53001
KGCN 110754Z AUTO 07004KT 10SM CLR 03/M25 A3047 RMK AO2 SLP282 T00281250
KGCN 110654Z AUTO 07007KT 10SM CLR M02/M24 A3048 RMK AO2 SLP298 T10221239 401331117
KGCN 110554Z AUTO 05003KT 10SM CLR M09/M23 A3048 RMK AO2 SLP319 T10891233 10056 21094 53002
KGCN 110454Z AUTO 06003KT 10SM CLR M07/M22 A3048 RMK AO2 SLP317 T10721222
KGCN 110354Z AUTO 05004KT 10SM CLR M08/M22 A3048 RMK AO2 SLP325 T10831217
KGCN 110254Z AUTO 05006KT 10SM CLR M07/M21 A3047 RMK AO2 SLP352 T10671206 50001
KGCN 110154Z 04008KT 10SM CLR M05/M19 A3048 RMK AO2 SLP354 T10501194
KGCN 110054Z 06006KT 10SM CLR M01/M18 A3047 RMK AO2 SLP330 T10061183
KGCN 102354Z 05008KT 10SM CLR 06/M17 A3047 RMK AO2 SLP315 T00561172 10133 20056 57000
KGCN 102254Z 05011KT 10SM CLR 10/M18 A3047 RMK AO2 SLP307 T01001183